Clyde Township, Michigan
Current Conditions -  °F | °C
As of 12:36 PM on Saturday 25 Oct 2014 (Local Time) from KPHN Reporting Station
Overcast Overcast  
Wind Chill: 15°   Ceiling: 1600
Heat Index: 15°   Visibility: 7mi
Dew Point: 11°   Wind: 10mph
Humidity: 77%   Direction: 260°W
Pressure: 29.76"   Gusts: 17mph
Location:  43.0355°N, 82.5759°W
Report Text: KPHN 251636Z AUTO 26009G15KT 230V290 7SM OVC016 15/11 A2976 RMK AO2
Loading
Personal Weather Stations






























Interactive Weather Map
Tropical Storm Tracking
New forecast layout! Learn more

10-Day Weather Forecast

Advertisements
Track Severe Weather on mobile